Etusivu
METAR-TAF:

METAR-TAF

Lentoasemat :

Rabat, Marokko

Leveyspiiri: 34-03N, Pituuspiiri: 006-46W, korkeus merenpinnasta: 84 m

Tämänhetkinen sää

Tämä raportti tehtiin 52 minuuttia sitten, kello 18.30 UTC
Tuuli 10 kn pohjoisen/luoteesta
Lämpötila 19°C
Kosteus 73%
Ilmanpaine 1014 hPa
Näkyvyys 10 km tai enemmän
Muutamia pilviä 2000 ft:n korkeudessa

METAR: GMME 201830Z 33010KT 9999 FEW020 19/14 Q1014 NOSIG

Aika: 19:22 (19:22 UTC)

Sääennuste

Tämä raportti tehtiin 2 tuntia ja 22 minuuttia sitten, kello 17.00 UTC
Ennuste voimassa 20. päivästä klo 18 UTC - 21. päivään klo 24 UTC
Tuuli 10 kn pohjoisen/luoteesta
Näkyvyys 10 km tai enemmän
Hajanaisia pilviä 2600 ft:n korkeudessa
Ajoittain
21. päivästä klo 01 UTC - 21. päivään klo 08 UTC
Tuuli 6 kn etelästä

TAF: GMME 201700Z 2018/2124 34010KT 9999 SCT026 TEMPO 2101/2108 18006KT

Säähavainnot ja -ennusteet yli 4000 lentoasemalta (METAR- ja TAF-raportit).

Käytössä olevat sääasemat on merkitty karttaan keltaisilla ja punaisilla pisteillä.

Aseta hiiri pisteen päälle nähdäksesi sääaseman nimen.

Klikkaa sitten nähdäksesi säähavainnot ja -ennusteet.

Kartan vaihtaminen: klikkaa mustalla rastilla varustettuja vihreitä pisteitä, niin voit zoomata sisään; viivalla varustettua vihreää pistettä, niin voit zoomata ulos tai vihreitä nuolia, niin pääset viereisille kartoille.


METAR-TAF: